Time;durP1;ratioP1;P1;durP2;ratioP2;P2;SDS_P1;SDS_P2;PMS_P1;PMS_P2;Temp;Humidity;BMP_temperature;BMP_pressure;BME280_temperature;BME280_humidity;BME280_pressure;Samples;Min_cycle;Max_cycle;Signal;HPM_P1;HPM_P2
2021/10/02 00:35:33;;;;;;;1.30;1.20;;;12.80;98.00;;;;;;5074282;28;20621;-69
2021/10/02 00:41:03;;;;;;;1.40;1.30;;;12.80;98.00;;;;;;5074190;28;20468;-69
2021/10/02 00:41:14;;;;;;;3.47;1.90;;;12.90;98.00;;;;;;5061204;28;21025;-68
2021/10/02 00:46:26;;;;;;;3.27;1.77;;;12.90;98.00;;;;;;5074090;28;20963;-68
2021/10/02 00:48:55;;;;;;;1.97;1.30;;;13.00;98.00;;;;;;5073997;28;20521;-70
2021/10/02 00:51:22;;;;;;;1.50;1.30;;;13.00;98.00;;;;;;5073736;28;20462;-69
2021/10/02 00:53:55;;;;;;;2.13;1.40;;;12.80;98.00;;;;;;5073759;28;20452;-69
2021/10/02 00:56:22;;;;;;;1.67;1.20;;;12.70;98.00;;;;;;5073754;28;20457;-68
2021/10/02 00:58:50;;;;;;;2.27;1.50;;;12.70;98.00;;;;;;5056237;28;20488;-69
2021/10/02 01:01:25;;;;;;;1.50;1.37;;;12.90;98.00;;;;;;5055854;28;20539;-69
2021/10/02 01:04:07;;;;;;;1.70;1.53;;;12.90;98.00;;;;;;5074107;28;20499;-69
2021/10/02 01:06:46;;;;;;;1.40;1.03;;;12.80;98.00;;;;;;5073927;28;20897;-69
2021/10/02 01:09:26;;;;;;;1.60;1.20;;;12.70;98.00;;;;;;5073665;28;20716;-68
2021/10/02 01:12:05;;;;;;;1.20;1.00;;;12.70;98.00;;;;;;5073738;28;21021;-69
2021/10/02 01:14:39;;;;;;;1.20;1.00;;;12.60;98.00;;;;;;5056884;28;20558;-69
2021/10/02 01:17:15;;;;;;;1.50;1.20;;;12.60;98.00;;;;;;5073435;28;20471;-69
2021/10/02 01:20:00;;;;;;;1.50;1.30;;;12.60;98.00;;;;;;5073011;28;20496;-69
2021/10/02 01:22:49;;;;;;;2.00;1.80;;;12.70;98.00;;;;;;5073140;28;20453;-68
2021/10/02 01:25:30;;;;;;;1.70;1.53;;;12.60;98.00;;;;;;5073095;28;20473;-70
2021/10/02 01:28:04;;;;;;;2.83;1.40;;;12.60;98.00;;;;;;5055679;28;20830;-68
2021/10/02 01:33:29;;;;;;;1.40;1.10;;;12.60;98.00;;;;;;5073298;28;21149;-70
2021/10/02 01:36:11;;;;;;;2.60;1.27;;;12.40;98.00;;;;;;5073051;28;20492;-70
2021/10/02 01:47:11;;;;;;;1.30;1.23;;;12.20;98.00;;;;;;5057898;28;20444;-69
2021/10/02 01:49:42;;;;;;;1.37;1.33;;;12.10;98.00;;;;;;5072700;28;20446;-70
2021/10/02 01:52:10;;;;;;;1.27;1.17;;;12.00;98.00;;;;;;5072526;28;20491;-69
2021/10/02 01:54:38;;;;;;;2.17;1.43;;;11.90;98.00;;;;;;5072505;28;20523;-70
2021/10/02 01:57:07;;;;;;;2.80;1.57;;;11.80;98.00;;;;;;5072579;28;20457;-68
2021/10/02 01:59:37;;;;;;;1.40;1.20;;;11.90;98.00;;;;;;5072675;28;20902;-69
2021/10/02 02:02:07;;;;;;;2.27;1.50;;;11.90;98.00;;;;;;5072441;28;20493;-70
2021/10/02 02:04:36;;;;;;;1.33;1.20;;;11.80;98.00;;;;;;5072468;28;20456;-69
2021/10/02 02:07:05;;;;;;;3.67;1.20;;;11.80;98.00;;;;;;5071998;28;20857;-69
2021/10/02 02:09:39;;;;;;;3.10;2.10;;;11.80;98.00;;;;;;5072299;28;20517;-67
2021/10/02 02:12:12;;;;;;;1.70;1.37;;;12.00;98.00;;;;;;5071070;28;20487;-69
2021/10/02 02:14:44;;;;;;;1.20;1.00;;;12.20;98.00;;;;;;5071728;28;20492;-69
2021/10/02 02:17:12;;;;;;;1.20;1.13;;;12.20;98.00;;;;;;5071736;28;20488;-70
2021/10/02 02:19:40;;;;;;;1.30;1.20;;;12.20;98.00;;;;;;5054594;28;20520;-68
2021/10/02 02:22:08;;;;;;;2.17;1.60;;;12.20;98.00;;;;;;5072194;28;20452;-71
2021/10/02 02:24:36;;;;;;;2.00;1.40;;;12.30;98.00;;;;;;5072223;28;20941;-69
2021/10/02 02:27:05;;;;;;;1.40;1.20;;;12.20;98.00;;;;;;5072581;28;21007;-69
2021/10/02 02:29:33;;;;;;;1.47;1.30;;;12.20;98.00;;;;;;5072406;28;20518;-70
2021/10/02 02:32:02;;;;;;;1.63;1.20;;;12.30;98.00;;;;;;5072308;28;20792;-68
2021/10/02 02:34:30;;;;;;;1.50;1.40;;;12.40;98.00;;;;;;5071911;28;20484;-69
2021/10/02 02:36:59;;;;;;;1.63;1.10;;;12.40;98.00;;;;;;5071778;28;21162;-68
2021/10/02 02:39:27;;;;;;;1.90;1.23;;;12.30;98.00;;;;;;5071619;28;20491;-68
2021/10/02 02:41:55;;;;;;;1.70;1.40;;;12.20;98.00;;;;;;5071645;28;20456;-69
2021/10/02 02:44:22;;;;;;;1.20;1.20;;;12.30;98.00;;;;;;5071510;28;20462;-70
2021/10/02 02:46:54;;;;;;;1.67;1.10;;;12.20;98.00;;;;;;5072029;28;20460;-70
2021/10/02 02:49:30;;;;;;;1.30;1.30;;;12.00;98.00;;;;;;5071529;28;20465;-70
2021/10/02 02:52:01;;;;;;;4.70;1.30;;;12.00;98.00;;;;;;5071393;28;20449;-69
2021/10/02 02:54:35;;;;;;;1.70;1.33;;;12.10;98.00;;;;;;5071529;28;20492;-68
2021/10/02 02:57:12;;;;;;;1.37;1.20;;;12.10;98.00;;;;;;5071548;28;20948;-69
2021/10/02 02:59:43;;;;;;;2.67;1.93;;;12.20;98.00;;;;;;5071567;28;20456;-71
2021/10/02 03:02:17;;;;;;;3.47;2.13;;;12.40;98.00;;;;;;5053586;28;20943;-68
2021/10/02 03:04:47;;;;;;;2.03;1.27;;;12.40;98.00;;;;;;5071683;28;20500;-68
2021/10/02 03:07:18;;;;;;;1.83;1.40;;;12.40;98.00;;;;;;5053588;28;20549;-69
2021/10/02 03:09:48;;;;;;;1.80;1.17;;;12.30;98.00;;;;;;5071539;28;20498;-69
2021/10/02 03:12:16;;;;;;;1.27;1.23;;;12.20;98.00;;;;;;5071496;28;20791;-69
2021/10/02 03:14:46;;;;;;;1.20;1.10;;;12.20;98.00;;;;;;5071419;28;20492;-70
2021/10/02 03:17:14;;;;;;;1.30;1.30;;;12.00;98.00;;;;;;5071425;28;20494;-70
2021/10/02 03:19:48;;;;;;;1.27;1.10;;;12.00;98.00;;;;;;5071288;28;20514;-70
2021/10/02 03:22:16;;;;;;;1.40;1.40;;;11.90;98.00;;;;;;5070974;28;20538;-69
2021/10/02 03:24:43;;;;;;;1.83;1.33;;;11.80;98.00;;;;;;5071479;28;20508;-68
2021/10/02 03:27:11;;;;;;;1.20;1.10;;;11.70;98.00;;;;;;5071447;28;20459;-69
2021/10/02 03:29:39;;;;;;;2.13;1.67;;;11.60;98.00;;;;;;5071288;28;20464;-69
2021/10/02 03:32:08;;;;;;;1.50;1.50;;;11.50;98.00;;;;;;5053755;28;20494;-68
2021/10/02 03:34:36;;;;;;;2.80;1.20;;;11.60;98.00;;;;;;5071229;28;20487;-69
2021/10/02 03:37:05;;;;;;;5.63;2.20;;;11.70;98.00;;;;;;5053781;28;20459;-69
2021/10/02 03:39:32;;;;;;;1.47;1.10;;;11.80;98.00;;;;;;5071504;28;20837;-69
2021/10/02 03:42:10;;;;;;;1.20;1.03;;;12.00;98.00;;;;;;5071368;28;20521;-69
2021/10/02 03:44:42;;;;;;;2.63;1.53;;;12.20;98.00;;;;;;5071231;28;20478;-70
2021/10/02 03:47:09;;;;;;;1.37;1.30;;;12.20;98.00;;;;;;5071456;28;20461;-68
2021/10/02 03:49:37;;;;;;;4.80;1.73;;;12.10;98.00;;;;;;5053291;28;21011;-69
2021/10/02 03:52:15;;;;;;;1.67;1.03;;;12.10;98.00;;;;;;5071065;28;20483;-70
2021/10/02 03:54:42;;;;;;;2.03;1.60;;;12.00;98.00;;;;;;5071326;28;20451;-68
2021/10/02 03:57:09;;;;;;;1.43;1.20;;;11.90;98.00;;;;;;5071130;28;20453;-70
2021/10/02 03:59:36;;;;;;;1.50;1.17;;;11.70;98.00;;;;;;5071215;28;20494;-69
2021/10/02 04:02:04;;;;;;;1.40;1.27;;;11.50;98.00;;;;;;5073412;28;20487;-69
2021/10/02 04:04:31;;;;;;;1.73;1.40;;;11.50;98.00;;;;;;5074761;28;20941;-69
2021/10/02 04:06:58;;;;;;;1.40;1.30;;;11.50;98.00;;;;;;5074496;28;20460;-69
2021/10/02 04:09:27;;;;;;;3.80;1.77;;;11.60;98.00;;;;;;5074639;28;20515;-69
2021/10/02 04:11:54;;;;;;;1.20;1.03;;;11.60;98.00;;;;;;5074484;28;20463;-68
2021/10/02 04:14:21;;;;;;;1.53;1.30;;;11.50;98.00;;;;;;5074403;28;20841;-69
2021/10/02 04:16:48;;;;;;;2.80;1.40;;;11.40;98.00;;;;;;5074243;28;20893;-68
2021/10/02 04:19:16;;;;;;;1.77;1.20;;;11.30;98.00;;;;;;5074372;28;20459;-70
2021/10/02 04:21:45;;;;;;;1.40;1.10;;;11.20;98.00;;;;;;5056762;28;20462;-69
2021/10/02 04:24:12;;;;;;;1.20;1.00;;;11.20;98.00;;;;;;5074001;28;20528;-70
2021/10/02 04:26:40;;;;;;;1.20;1.10;;;11.20;98.00;;;;;;5056778;28;20497;-69
2021/10/02 04:29:08;;;;;;;1.30;1.23;;;11.20;98.00;;;;;;5074421;28;20499;-69
2021/10/02 04:31:35;;;;;;;1.37;1.10;;;11.20;98.00;;;;;;5056549;28;20790;-69
2021/10/02 04:34:05;;;;;;;1.80;1.50;;;11.40;98.00;;;;;;5074392;28;21000;-69
2021/10/02 04:36:33;;;;;;;1.70;1.40;;;11.40;98.00;;;;;;5074174;28;20490;-70
2021/10/02 04:39:00;;;;;;;1.97;1.40;;;11.60;98.00;;;;;;5074115;28;20927;-69
2021/10/02 04:41:27;;;;;;;1.20;1.10;;;11.60;98.00;;;;;;5074084;28;20465;-69
2021/10/02 04:43:55;;;;;;;1.20;1.00;;;11.70;98.00;;;;;;5074157;28;20539;-69
2021/10/02 04:46:22;;;;;;;1.20;1.00;;;11.70;98.00;;;;;;5073977;28;20481;-68
2021/10/02 04:48:49;;;;;;;1.73;1.13;;;11.70;98.00;;;;;;5073956;28;20467;-68
2021/10/02 04:51:18;;;;;;;1.30;1.20;;;11.80;98.00;;;;;;5073929;28;20457;-68
2021/10/02 04:53:45;;;;;;;1.73;1.10;;;11.90;98.00;;;;;;5073641;28;20493;-69
2021/10/02 04:56:14;;;;;;;1.30;1.27;;;11.90;98.00;;;;;;5056233;28;20483;-68
2021/10/02 04:58:43;;;;;;;1.30;1.20;;;11.80;98.00;;;;;;5073582;28;20496;-69
2021/10/02 05:01:11;;;;;;;1.40;1.20;;;11.90;98.00;;;;;;5073731;28;20449;-69
2021/10/02 05:03:39;;;;;;;1.40;1.10;;;11.80;98.00;;;;;;5074037;28;20482;-69
2021/10/02 05:06:08;;;;;;;2.70;1.50;;;11.90;98.00;;;;;;5073668;28;20517;-69
2021/10/02 05:08:37;;;;;;;1.77;1.40;;;11.90;98.00;;;;;;5073934;28;20948;-69
2021/10/02 05:11:05;;;;;;;1.20;1.10;;;11.90;98.00;;;;;;5073954;28;20460;-68
2021/10/02 05:13:34;;;;;;;1.50;1.17;;;12.10;98.00;;;;;;5073461;28;20461;-69
2021/10/02 05:16:01;;;;;;;1.20;1.10;;;12.20;98.00;;;;;;5073351;28;20484;-69
2021/10/02 05:18:29;;;;;;;1.40;1.40;;;12.20;98.00;;;;;;5073580;28;20452;-69
2021/10/02 05:20:57;;;;;;;1.93;1.60;;;12.10;98.00;;;;;;5073409;28;20829;-69
2021/10/02 05:23:26;;;;;;;1.40;1.20;;;12.10;98.00;;;;;;5055695;28;20926;-70
2021/10/02 05:25:54;;;;;;;1.20;1.10;;;12.00;98.00;;;;;;5073104;28;20497;-69
2021/10/02 05:28:21;;;;;;;1.30;1.10;;;11.90;98.00;;;;;;5072955;28;20491;-69
2021/10/02 05:30:48;;;;;;;1.40;1.37;;;11.70;98.00;;;;;;5073142;28;20506;-69
2021/10/02 05:33:15;;;;;;;1.30;1.10;;;11.50;98.00;;;;;;5073175;28;20856;-69
2021/10/02 05:35:45;;;;;;;1.30;1.10;;;11.40;98.00;;;;;;5055126;28;20483;-70
2021/10/02 05:38:13;;;;;;;1.30;1.10;;;11.40;98.00;;;;;;5073075;28;20464;-70
2021/10/02 05:40:41;;;;;;;1.23;1.10;;;11.30;98.00;;;;;;5072962;28;20805;-69
2021/10/02 05:43:08;;;;;;;1.40;1.20;;;11.30;98.00;;;;;;5072855;28;20475;-70
2021/10/02 05:45:36;;;;;;;1.30;1.07;;;11.30;98.00;;;;;;5055138;28;20999;-69
2021/10/02 05:48:04;;;;;;;1.80;1.30;;;11.20;98.00;;;;;;5055247;28;20484;-69
2021/10/02 05:50:34;;;;;;;1.30;1.20;;;11.20;98.00;;;;;;5072691;28;20609;-69
2021/10/02 05:53:02;;;;;;;1.20;1.00;;;11.10;98.00;;;;;;5072526;28;20457;-68
2021/10/02 05:55:32;;;;;;;1.30;1.10;;;11.20;98.00;;;;;;5072574;28;20489;-70
2021/10/02 05:57:59;;;;;;;1.30;1.20;;;11.30;98.00;;;;;;5055085;28;20489;-69
2021/10/02 06:00:26;;;;;;;4.33;1.70;;;11.40;98.00;;;;;;5072607;28;20501;-70
2021/10/02 06:02:56;;;;;;;1.90;1.30;;;11.50;98.00;;;;;;5072406;28;20458;-70
2021/10/02 06:05:26;;;;;;;2.43;1.20;;;11.40;98.00;;;;;;5072549;28;20792;-69
2021/10/02 06:07:54;;;;;;;1.30;1.20;;;11.50;98.00;;;;;;5072423;28;20452;-70
2021/10/02 06:10:23;;;;;;;2.13;1.63;;;11.70;98.00;;;;;;5072568;28;20464;-70
2021/10/02 06:12:54;;;;;;;2.83;1.20;;;11.90;98.00;;;;;;5072114;28;20461;-68
2021/10/02 06:15:21;;;;;;;1.50;1.10;;;12.10;98.00;;;;;;5072273;28;20521;-70
2021/10/02 06:17:49;;;;;;;1.23;1.20;;;12.20;98.00;;;;;;5072120;28;20517;-69
2021/10/02 06:20:16;;;;;;;1.80;1.23;;;12.20;98.00;;;;;;5072126;28;20451;-69
2021/10/02 06:22:44;;;;;;;1.70;1.60;;;12.40;98.00;;;;;;5072083;28;20462;-70
2021/10/02 06:25:11;;;;;;;1.23;1.07;;;12.50;98.00;;;;;;5071844;28;20523;-70
2021/10/02 06:27:51;;;;;;;2.07;1.60;;;12.50;98.00;;;;;;5072118;28;20452;-68
2021/10/02 06:30:18;;;;;;;1.60;1.37;;;12.60;98.00;;;;;;5072069;28;20463;-69
2021/10/02 06:32:45;;;;;;;1.73;1.20;;;12.60;98.00;;;;;;5072410;28;20502;-68
2021/10/02 06:35:12;;;;;;;2.93;1.77;;;12.70;98.00;;;;;;5072353;28;20464;-70
2021/10/02 06:37:39;;;;;;;2.07;1.77;;;12.80;98.00;;;;;;5072072;28;20487;-69
2021/10/02 06:40:08;;;;;;;1.50;1.30;;;12.80;98.00;;;;;;5072143;28;20453;-69
2021/10/02 06:42:35;;;;;;;1.40;1.30;;;12.60;98.00;;;;;;5071727;28;20494;-70
2021/10/02 06:45:05;;;;;;;1.60;1.60;;;12.60;98.00;;;;;;5072051;28;20998;-70
2021/10/02 06:47:32;;;;;;;1.70;1.37;;;12.60;98.00;;;;;;5071567;28;20479;-68
2021/10/02 06:50:00;;;;;;;1.70;1.20;;;12.80;98.00;;;;;;5071473;28;21141;-70
2021/10/02 06:52:28;;;;;;;3.67;1.67;;;12.90;98.00;;;;;;5071535;28;20464;-69
2021/10/02 06:54:56;;;;;;;2.03;1.40;;;12.90;98.00;;;;;;5071662;28;20495;-69
2021/10/02 06:57:24;;;;;;;1.60;1.30;;;12.90;98.00;;;;;;5053715;28;20481;-70
2021/10/02 06:59:51;;;;;;;1.67;1.43;;;12.90;98.00;;;;;;5071454;28;20466;-71
2021/10/02 07:02:20;;;;;;;1.20;1.10;;;12.80;98.00;;;;;;5071740;28;20515;-69
2021/10/02 07:04:49;;;;;;;1.43;1.20;;;12.70;98.00;;;;;;5071620;28;20454;-68
2021/10/02 07:07:16;;;;;;;3.90;1.80;;;12.80;98.00;;;;;;5071427;28;20519;-69
2021/10/02 07:09:43;;;;;;;1.50;1.30;;;12.80;98.00;;;;;;5071322;28;20496;-70
2021/10/02 07:12:10;;;;;;;2.27;1.37;;;13.00;98.00;;;;;;5053964;28;20878;-71
2021/10/02 07:14:38;;;;;;;1.93;1.30;;;13.00;98.00;;;;;;5071621;28;20464;-71
2021/10/02 07:17:05;;;;;;;2.13;1.10;;;13.10;98.00;;;;;;5071200;28;20483;-69
2021/10/02 07:19:33;;;;;;;2.43;1.47;;;12.90;98.00;;;;;;5071350;28;20500;-70
2021/10/02 07:22:02;;;;;;;1.20;1.20;;;12.90;98.00;;;;;;5071268;28;20501;-71
2021/10/02 07:24:28;;;;;;;1.20;1.17;;;12.90;98.00;;;;;;5071359;28;20462;-70
2021/10/02 07:26:59;;;;;;;1.87;1.63;;;13.00;98.00;;;;;;5068142;28;20978;-70
2021/10/02 07:29:27;;;;;;;1.40;1.27;;;13.00;98.00;;;;;;5065073;28;20470;-70
2021/10/02 07:31:55;;;;;;;3.47;1.73;;;13.10;98.00;;;;;;5070031;28;20571;-71
2021/10/02 07:34:22;;;;;;;2.33;1.97;;;13.20;98.00;;;;;;5076480;28;20497;-70
2021/10/02 07:36:51;;;;;;;2.50;1.63;;;13.20;98.00;;;;;;5074935;28;20486;-72
2021/10/02 07:39:18;;;;;;;2.03;1.70;;;13.20;98.00;;;;;;5065584;28;20496;-71
2021/10/02 07:41:47;;;;;;;1.43;1.20;;;13.40;98.00;;;;;;5087564;28;20557;-70
2021/10/02 07:44:14;;;;;;;2.53;1.50;;;13.40;98.00;;;;;;5076206;28;20460;-71
2021/10/02 07:46:47;;;;;;;1.43;1.17;;;13.40;98.00;;;;;;5078572;28;20489;-71
2021/10/02 07:49:16;;;;;;;2.03;1.57;;;13.60;98.00;;;;;;5080899;28;20519;-71
2021/10/02 07:51:45;;;;;;;1.40;1.27;;;13.70;98.00;;;;;;5083173;28;20922;-69
2021/10/02 07:54:15;;;;;;;1.60;1.23;;;13.80;98.00;;;;;;5082984;28;20453;-71
2021/10/02 07:56:43;;;;;;;2.40;1.40;;;13.80;98.00;;;;;;5074078;28;20486;-71
2021/10/02 07:59:15;;;;;;;2.37;1.73;;;14.20;98.00;;;;;;5083070;28;20457;-72
2021/10/02 08:01:42;;;;;;;1.30;1.20;;;14.70;98.00;;;;;;5080903;28;20560;-71
2021/10/02 08:04:10;;;;;;;1.73;1.60;;;15.20;98.00;;;;;;5091668;28;20988;-72
2021/10/02 08:06:38;;;;;;;1.50;1.20;;;15.60;98.00;;;;;;5067099;28;20938;-69
2021/10/02 08:09:05;;;;;;;2.77;1.87;;;15.60;98.00;;;;;;5080024;28;20973;-71
2021/10/02 08:11:34;;;;;;;2.60;1.70;;;15.80;98.00;;;;;;5075802;28;20460;-71
2021/10/02 08:14:01;;;;;;;2.20;1.97;;;15.80;98.00;;;;;;5080024;28;20526;-71
2021/10/02 08:16:34;;;;;;;1.40;1.30;;;15.80;98.00;;;;;;5074900;28;20568;-71
2021/10/02 08:19:03;;;;;;;1.87;1.70;;;15.70;98.00;;;;;;5079618;28;20448;-72
2021/10/02 08:21:30;;;;;;;2.50;1.93;;;15.50;98.00;;;;;;5090257;28;20494;-69
2021/10/02 08:23:58;;;;;;;1.40;1.27;;;15.50;98.00;;;;;;5082600;28;20512;-69
2021/10/02 08:26:32;;;;;;;1.40;1.30;;;15.60;98.00;;;;;;5076633;28;20479;-72
2021/10/02 08:29:02;;;;;;;1.50;1.10;;;15.70;98.00;;;;;;5094646;28;20956;-71
2021/10/02 08:31:29;;;;;;;1.37;1.30;;;15.70;98.00;;;;;;5094369;28;20458;-72
2021/10/02 08:33:56;;;;;;;1.60;1.30;;;15.80;98.00;;;;;;5076432;28;20552;-72
2021/10/02 08:36:23;;;;;;;1.53;1.53;;;16.00;98.00;;;;;;5094344;28;20479;-71
2021/10/02 08:38:50;;;;;;;2.07;1.57;;;16.20;98.00;;;;;;5094534;28;20968;-71
2021/10/02 08:41:21;;;;;;;1.80;1.30;;;16.10;98.00;;;;;;5094336;28;20491;-71
2021/10/02 08:43:49;;;;;;;1.67;1.30;;;16.30;98.00;;;;;;5094108;28;20455;-71
2021/10/02 08:46:18;;;;;;;1.60;1.53;;;16.40;98.00;;;;;;5094178;28;20532;-73
2021/10/02 08:48:56;;;;;;;2.30;2.20;;;16.60;98.00;;;;;;5094037;28;20467;-72
2021/10/02 08:51:24;;;;;;;2.07;1.53;;;16.60;98.00;;;;;;5094240;28;20459;-72
2021/10/02 08:53:55;;;;;;;1.63;1.53;;;16.80;98.00;;;;;;5093676;28;20490;-72
2021/10/02 08:56:24;;;;;;;1.60;1.40;;;17.00;98.00;;;;;;5094117;28;20886;-72
2021/10/02 08:58:52;;;;;;;1.80;1.40;;;17.10;98.00;;;;;;5094028;28;20550;-72
2021/10/02 09:01:21;;;;;;;1.60;1.40;;;17.30;98.00;;;;;;5094221;28;20531;-72
2021/10/02 09:03:48;;;;;;;1.77;1.70;;;17.50;98.00;;;;;;5094300;28;20509;-71
2021/10/02 09:06:15;;;;;;;1.60;1.50;;;17.70;98.00;;;;;;5094168;28;20524;-72
2021/10/02 09:08:42;;;;;;;2.90;2.03;;;17.90;98.00;;;;;;5094301;28;20448;-72
2021/10/02 09:11:11;;;;;;;2.57;2.10;;;18.10;98.00;;;;;;5094239;28;20880;-73
2021/10/02 09:13:40;;;;;;;2.03;1.50;;;18.20;98.00;;;;;;5094145;28;20456;-72
2021/10/02 09:16:07;;;;;;;3.70;2.03;;;18.50;98.00;;;;;;5075986;28;20955;-72
2021/10/02 09:18:35;;;;;;;2.20;1.53;;;18.80;98.00;;;;;;5093642;28;20480;-73
2021/10/02 09:21:04;;;;;;;1.87;1.83;;;18.90;98.00;;;;;;5093588;28;20949;-72
2021/10/02 09:23:33;;;;;;;2.77;2.17;;;19.10;98.00;;;;;;5093711;28;20509;-72
2021/10/02 09:26:05;;;;;;;1.70;1.70;;;19.30;98.00;;;;;;5093683;28;20467;-73
2021/10/02 09:28:48;;;;;;;1.97;1.50;;;19.50;98.00;;;;;;5093500;28;20467;-73
2021/10/02 09:31:18;;;;;;;1.87;1.70;;;19.70;98.00;;;;;;5076731;28;20465;-72
2021/10/02 09:33:47;;;;;;;2.87;1.80;;;19.90;98.00;;;;;;5093468;28;20452;-72
2021/10/02 09:36:21;;;;;;;1.60;1.50;;;20.10;98.00;;;;;;5093341;28;20460;-72
2021/10/02 09:38:50;;;;;;;1.47;1.13;;;20.30;98.00;;;;;;5093236;28;20537;-73
2021/10/02 09:41:17;;;;;;;1.60;1.57;;;20.50;98.00;;;;;;5092998;28;20526;-72
2021/10/02 09:43:47;;;;;;;5.10;1.77;;;20.70;98.00;;;;;;5093019;28;20444;-72
2021/10/02 09:46:14;;;;;;;2.77;1.70;;;20.90;97.50;;;;;;5093080;28;20455;-72
2021/10/02 09:48:41;;;;;;;1.50;1.40;;;21.10;95.20;;;;;;5093505;28;20475;-72
2021/10/02 09:51:10;;;;;;;1.50;1.50;;;21.30;92.60;;;;;;5092881;28;20455;-73
2021/10/02 09:53:39;;;;;;;3.00;1.93;;;21.40;91.70;;;;;;5092993;28;20572;-73
2021/10/02 09:56:08;;;;;;;2.37;1.83;;;21.50;91.20;;;;;;5092935;28;20456;-71
2021/10/02 09:58:37;;;;;;;2.33;1.80;;;21.60;89.80;;;;;;5091910;28;20523;-72
2021/10/02 10:01:08;;;;;;;1.97;1.47;;;21.80;91.40;;;;;;5092846;28;20509;-73
2021/10/02 10:03:44;;;;;;;4.80;1.77;;;22.10;90.20;;;;;;5092863;28;20491;-72
2021/10/02 10:06:28;;;;;;;2.17;1.47;;;22.20;88.90;;;;;;5092905;28;20534;-73
2021/10/02 10:09:06;;;;;;;1.93;1.50;;;22.40;89.00;;;;;;5090373;28;20462;-73
2021/10/02 10:11:45;;;;;;;2.43;1.73;;;22.50;87.70;;;;;;5092936;28;20459;-74
2021/10/02 10:14:19;;;;;;;1.93;1.50;;;22.80;88.80;;;;;;5092813;28;20463;-72
2021/10/02 10:16:49;;;;;;;2.30;1.70;;;22.90;87.80;;;;;;5092472;28;20943;-73
2021/10/02 10:19:20;;;;;;;1.70;1.47;;;23.00;87.70;;;;;;5092644;28;20456;-74
2021/10/02 10:22:05;;;;;;;2.10;1.50;;;23.10;88.40;;;;;;5092481;28;20484;-73
2021/10/02 10:24:32;;;;;;;1.87;1.63;;;23.40;86.90;;;;;;5074216;28;20528;-72
2021/10/02 10:26:59;;;;;;;2.30;1.70;;;23.30;85.90;;;;;;5092356;28;20445;-74
2021/10/02 10:29:37;;;;;;;1.57;1.47;;;23.50;85.60;;;;;;5092577;28;20460;-73
2021/10/02 10:32:07;;;;;;;2.37;1.80;;;23.60;85.60;;;;;;5092515;28;20544;-73
2021/10/02 10:34:39;;;;;;;1.83;1.57;;;23.70;83.70;;;;;;5092533;28;20522;-73
2021/10/02 10:37:10;;;;;;;2.07;1.70;;;23.80;84.20;;;;;;5092629;28;20807;-73
2021/10/02 10:39:37;;;;;;;1.90;1.53;;;24.10;83.90;;;;;;5092349;28;21256;-73
2021/10/02 10:42:06;;;;;;;2.00;1.63;;;23.80;83.50;;;;;;5092098;28;20843;-73
2021/10/02 10:44:34;;;;;;;2.30;1.70;;;23.70;84.20;;;;;;5092248;28;20484;-73
2021/10/02 10:47:01;;;;;;;2.30;1.63;;;23.70;84.50;;;;;;5091990;28;20455;-73
2021/10/02 10:49:28;;;;;;;2.33;1.80;;;23.90;85.30;;;;;;5092364;28;20460;-73
2021/10/02 10:52:01;;;;;;;2.20;1.57;;;24.00;86.60;;;;;;5091954;28;20514;-74
2021/10/02 10:54:32;;;;;;;4.60;2.10;;;24.30;84.70;;;;;;5092205;28;20456;-74
2021/10/02 10:56:59;;;;;;;2.20;1.60;;;24.40;84.70;;;;;;5091331;28;20495;-73
2021/10/02 10:59:26;;;;;;;2.23;1.80;;;24.60;83.50;;;;;;5092152;28;20545;-74
2021/10/02 11:01:53;;;;;;;2.33;1.47;;;24.70;83.10;;;;;;5091931;28;20452;-73
2021/10/02 11:04:38;;;;;;;1.80;1.50;;;24.90;83.40;;;;;;5091833;28;20444;-74
2021/10/02 11:07:06;;;;;;;1.90;1.63;;;25.10;82.50;;;;;;5092086;28;20490;-73
2021/10/02 11:09:40;;;;;;;1.93;1.50;;;25.30;82.10;;;;;;5091438;28;20962;-73
2021/10/02 11:12:08;;;;;;;3.03;1.90;;;25.60;81.70;;;;;;5091738;28;20833;-73
2021/10/02 11:15:01;;;;;;;2.20;1.87;;;25.50;82.60;;;;;;5091720;28;20459;-72
2021/10/02 11:17:44;;;;;;;1.50;1.40;;;25.70;83.00;;;;;;5091774;28;20476;-73
2021/10/02 11:20:34;;;;;;;3.40;2.10;;;25.80;83.30;;;;;;5091553;28;20455;-73
2021/10/02 11:24:02;;;;;;;2.07;1.70;;;26.00;80.00;;;;;;5091702;28;20452;-73
2021/10/02 11:26:41;;;;;;;2.13;1.80;;;26.20;81.00;;;;;;4989758;28;20493;-74
2021/10/02 11:29:20;;;;;;;2.33;1.83;;;26.40;80.50;;;;;;5091815;28;20452;-74
2021/10/02 11:31:51;;;;;;;2.60;2.00;;;26.40;80.60;;;;;;5091680;28;20991;-73
2021/10/02 11:34:21;;;;;;;2.73;1.80;;;26.10;80.70;;;;;;5091755;28;20448;-73
2021/10/02 11:36:54;;;;;;;2.17;1.70;;;26.00;82.10;;;;;;5091635;28;20492;-73
2021/10/02 11:39:30;;;;;;;3.43;2.40;;;26.20;82.90;;;;;;5091400;28;20569;-75
2021/10/02 11:42:01;;;;;;;2.20;1.90;;;26.30;81.40;;;;;;5091628;28;20463;-73
2021/10/02 11:44:45;;;;;;;2.43;2.00;;;26.30;79.80;;;;;;5091658;28;20830;-73
2021/10/02 11:47:34;;;;;;;1.90;1.80;;;26.10;80.00;;;;;;5091412;28;20471;-73
2021/10/02 11:50:29;;;;;;;2.90;1.87;;;26.00;80.60;;;;;;5091557;28;20526;-72
2021/10/02 11:53:20;;;;;;;2.20;1.60;;;26.00;80.50;;;;;;5091571;28;20451;-72
2021/10/02 11:55:50;;;;;;;2.00;1.90;;;26.20;80.00;;;;;;5091891;28;20456;-75
2021/10/02 11:58:22;;;;;;;2.80;1.87;;;26.10;80.90;;;;;;5091226;28;20511;-74
2021/10/02 12:00:52;;;;;;;1.90;1.83;;;25.90;81.50;;;;;;5091630;28;20513;-72
2021/10/02 12:03:23;;;;;;;1.70;1.60;;;25.40;80.20;;;;;;5090573;28;20977;-74
2021/10/02 12:05:53;;;;;;;2.10;1.90;;;25.40;83.20;;;;;;5090978;28;20462;-73
2021/10/02 12:08:21;;;;;;;2.30;1.63;;;25.40;83.50;;;;;;5090474;28;20501;-74
2021/10/02 12:10:56;;;;;;;2.43;1.90;;;25.50;83.10;;;;;;5090689;28;20456;-74
2021/10/02 12:13:29;;;;;;;2.50;1.47;;;25.70;82.00;;;;;;5090635;28;20502;-73
2021/10/02 12:16:04;;;;;;;3.67;2.33;;;25.90;81.30;;;;;;5091149;28;20545;-73
2021/10/02 12:18:55;;;;;;;2.70;2.00;;;25.90;80.10;;;;;;5090943;28;20579;-74
2021/10/02 12:21:35;;;;;;;2.73;1.60;;;25.80;80.80;;;;;;5091148;28;20493;-73
2021/10/02 12:24:06;;;;;;;1.87;1.70;;;25.80;80.80;;;;;;5094811;28;20455;-73
2021/10/02 12:26:39;;;;;;;1.93;1.60;;;25.80;81.00;;;;;;5094658;28;20495;-72
2021/10/02 12:29:08;;;;;;;4.27;2.10;;;25.80;80.20;;;;;;5094645;28;20907;-73
2021/10/02 12:31:43;;;;;;;1.60;1.60;;;25.40;79.80;;;;;;5094419;28;20538;-73
2021/10/02 12:34:12;;;;;;;1.80;1.50;;;25.40;81.30;;;;;;5094563;28;21003;-73
2021/10/02 12:36:40;;;;;;;2.53;1.73;;;25.50;81.30;;;;;;5094617;28;20546;-72
2021/10/02 12:39:07;;;;;;;5.77;3.23;;;25.40;81.80;;;;;;5094300;28;20556;-73
2021/10/02 12:41:39;;;;;;;2.23;1.80;;;25.50;81.60;;;;;;5094409;28;20468;-74
2021/10/02 12:44:19;;;;;;;2.73;1.90;;;25.70;82.10;;;;;;5094326;28;20460;-72
2021/10/02 12:46:47;;;;;;;3.17;2.00;;;25.80;81.10;;;;;;5094394;28;20478;-73
2021/10/02 12:49:14;;;;;;;3.70;1.70;;;25.80;80.90;;;;;;5094241;28;20456;-73
2021/10/02 12:51:43;;;;;;;2.10;1.70;;;26.00;81.00;;;;;;5094275;28;20452;-73
2021/10/02 12:54:10;;;;;;;3.10;1.90;;;26.10;80.30;;;;;;5094471;28;20927;-73
2021/10/02 12:56:56;;;;;;;1.90;1.50;;;26.10;81.40;;;;;;5094086;28;20468;-73
2021/10/02 12:59:24;;;;;;;2.53;2.17;;;26.00;81.30;;;;;;5093887;28;20536;-73
2021/10/02 13:01:52;;;;;;;3.33;1.90;;;25.70;79.70;;;;;;5093915;28;20496;-75
2021/10/02 13:04:20;;;;;;;2.33;1.70;;;25.60;80.40;;;;;;5094039;28;20505;-73
2021/10/02 13:06:52;;;;;;;1.70;1.57;;;25.60;82.00;;;;;;5093919;28;20510;-73
2021/10/02 13:09:19;;;;;;;1.87;1.80;;;25.70;81.70;;;;;;5094016;28;20505;-72
2021/10/02 13:11:46;;;;;;;2.30;1.77;;;25.40;81.10;;;;;;5094025;28;20460;-74
2021/10/02 13:14:29;;;;;;;2.90;1.83;;;25.20;82.40;;;;;;5093946;28;20448;-75
2021/10/02 13:17:00;;;;;;;2.33;1.77;;;25.20;83.60;;;;;;5075920;28;20535;-74
2021/10/02 13:19:28;;;;;;;2.13;1.80;;;25.10;86.90;;;;;;5094048;28;20488;-73
2021/10/02 13:22:11;;;;;;;2.50;1.90;;;25.10;88.30;;;;;;5093764;28;20464;-73
2021/10/02 13:24:38;;;;;;;1.90;1.70;;;25.40;86.60;;;;;;5093836;28;20460;-74
2021/10/02 13:27:09;;;;;;;2.63;1.90;;;25.80;85.80;;;;;;5093635;28;20568;-73
2021/10/02 13:29:38;;;;;;;2.17;1.73;;;26.10;83.20;;;;;;5093618;28;20452;-74
2021/10/02 13:32:16;;;;;;;2.23;1.90;;;26.40;79.00;;;;;;5093314;28;20982;-75
2021/10/02 13:35:03;;;;;;;3.00;1.90;;;26.60;79.70;;;;;;5093442;28;20898;-74
2021/10/02 13:37:30;;;;;;;2.57;1.90;;;26.70;78.00;;;;;;5093075;28;20510;-73
2021/10/02 13:40:02;;;;;;;1.67;1.57;;;26.70;78.30;;;;;;5093217;28;20480;-73
2021/10/02 13:42:29;;;;;;;2.00;1.50;;;26.80;78.60;;;;;;5093175;28;20900;-73
2021/10/02 13:45:04;;;;;;;2.00;1.53;;;27.10;77.70;;;;;;5093091;28;20453;-73
2021/10/02 13:47:31;;;;;;;2.23;1.63;;;27.50;76.20;;;;;;5075765;28;20544;-74
2021/10/02 13:49:58;;;;;;;2.67;1.70;;;27.80;74.30;;;;;;5093082;28;20452;-74
2021/10/02 13:52:25;;;;;;;2.43;1.90;;;28.10;75.10;;;;;;5092856;28;21099;-73
2021/10/02 13:54:52;;;;;;;1.93;1.60;;;28.40;76.10;;;;;;5093049;28;20484;-75